createdAt,value
2023-05-03T00:02:26.420Z,48.87
2023-05-03T00:05:28.106Z,49.23
2023-05-03T00:08:30.286Z,49.41
2023-05-03T00:11:31.583Z,49.61
2023-05-03T00:14:33.032Z,49.41
2023-05-03T00:17:34.611Z,49.87
2023-05-03T00:20:36.271Z,50.06
2023-05-03T00:23:38.204Z,49.93
2023-05-03T00:26:39.614Z,50.63
2023-05-03T00:29:40.897Z,50.97
2023-05-03T00:32:42.356Z,51.27
2023-05-03T00:35:44.345Z,51.67
2023-05-03T00:38:46.572Z,50.86
2023-05-03T00:41:47.893Z,51.82
2023-05-03T00:44:49.313Z,52.26
2023-05-03T00:47:50.999Z,51.74
2023-05-03T00:50:53.792Z,52.04
2023-05-03T00:53:56.449Z,51.66
2023-05-03T00:56:57.794Z,52.55
2023-05-03T00:59:59.805Z,53.15
2023-05-03T01:03:01.220Z,52.63
2023-05-03T01:06:11.124Z,53.38
2023-05-03T01:09:21.877Z,53.94
2023-05-03T01:12:34.231Z,54.12
2023-05-03T01:15:44.779Z,53.58
2023-05-03T01:18:49.025Z,53.67
2023-05-03T01:21:59.306Z,54.30
2023-05-03T01:25:07.278Z,53.99
2023-05-03T01:28:08.674Z,55.13
2023-05-03T01:31:11.213Z,55.49
2023-05-03T01:34:22.461Z,55.84
2023-05-03T01:37:25.035Z,55.29
2023-05-03T01:40:29.053Z,55.32
2023-05-03T01:43:31.165Z,55.97
2023-05-03T01:46:32.618Z,55.65
2023-05-03T01:49:34.405Z,54.98
2023-05-03T01:52:35.853Z,56.35
2023-05-03T01:55:37.816Z,56.54
2023-05-03T01:58:39.246Z,56.17
2023-05-03T02:01:40.607Z,55.98
2023-05-03T02:04:42.422Z,56.62
2023-05-03T02:07:43.787Z,56.13
2023-05-03T02:10:45.863Z,56.51
2023-05-03T02:13:49.190Z,57.65
2023-05-03T02:16:50.999Z,57.30
2023-05-03T02:19:52.412Z,57.26
2023-05-03T02:22:53.696Z,57.30
2023-05-03T02:25:55.737Z,57.80
2023-05-03T02:28:57.515Z,57.41
2023-05-03T02:31:58.926Z,56.72
2023-05-03T02:35:00.343Z,58.09
2023-05-03T02:38:01.630Z,58.05
2023-05-03T02:41:03.759Z,58.50
2023-05-03T02:44:05.244Z,58.26
2023-05-03T02:47:06.854Z,58.91
2023-05-03T02:50:08.288Z,59.74
2023-05-03T02:53:09.942Z,59.83
2023-05-03T02:56:12.020Z,59.96
2023-05-03T02:59:13.264Z,59.62
2023-05-03T03:02:14.780Z,60.04
2023-05-03T03:05:16.927Z,60.43
2023-05-03T03:08:18.410Z,60.58
2023-05-03T03:11:20.423Z,60.66
2023-05-03T03:14:21.801Z,61.09
2023-05-03T03:17:23.132Z,61.20
2023-05-03T03:20:24.491Z,61.51
2023-05-03T03:23:26.000Z,61.31
2023-05-03T03:26:28.016Z,61.81
2023-05-03T03:29:31.591Z,61.81
2023-05-03T03:32:32.937Z,61.59
2023-05-03T03:35:34.548Z,61.77
2023-05-03T03:38:35.834Z,62.17
2023-05-03T03:41:38.006Z,62.46
2023-05-03T03:44:39.332Z,62.56
2023-05-03T03:47:40.695Z,62.44
2023-05-03T03:50:42.155Z,62.24
2023-05-03T03:53:43.592Z,62.76
2023-05-03T03:56:45.536Z,62.58
2023-05-03T03:59:46.826Z,62.74
2023-05-03T04:02:48.273Z,63.05
2023-05-03T04:05:50.250Z,62.59
2023-05-03T04:08:51.678Z,62.27
2023-05-03T04:11:53.920Z,62.33
2023-05-03T04:14:56.368Z,61.85
2023-05-03T04:17:57.829Z,62.33
2023-05-03T04:20:59.138Z,61.34
2023-05-03T04:24:03.812Z,61.25
2023-05-03T04:27:05.916Z,61.19
2023-05-03T04:30:08.850Z,61.64
2023-05-03T04:33:10.665Z,60.82
2023-05-03T04:36:15.270Z,60.40
2023-05-03T04:39:16.690Z,59.99
2023-05-03T04:42:18.653Z,57.78
2023-05-03T04:45:20.107Z,57.20
2023-05-03T04:48:21.514Z,57.30
2023-05-03T04:51:23.167Z,55.63
2023-05-03T04:54:24.523Z,54.86
2023-05-03T04:57:26.625Z,52.80
2023-05-03T05:00:28.173Z,54.66
2023-05-03T05:03:30.747Z,53.26
2023-05-03T05:06:32.219Z,51.99
2023-05-03T05:09:33.529Z,51.41
2023-05-03T05:12:35.627Z,50.37
2023-05-03T05:15:36.968Z,49.06
2023-05-03T05:18:38.290Z,49.08
2023-05-03T05:21:39.699Z,47.17
2023-05-03T05:24:41.105Z,47.62
2023-05-03T05:27:43.076Z,47.21
2023-05-03T05:30:44.385Z,48.47
2023-05-03T05:33:45.883Z,47.62
2023-05-03T05:36:47.340Z,47.84
2023-05-03T05:39:48.632Z,47.92
2023-05-03T05:42:50.698Z,47.97
2023-05-03T05:45:51.990Z,47.24
2023-05-03T05:48:53.508Z,47.73
2023-05-03T05:51:55.822Z,46.65
2023-05-03T05:54:57.107Z,46.59
2023-05-03T05:57:59.285Z,46.36
2023-05-03T06:01:00.969Z,45.70
2023-05-03T06:04:02.325Z,45.59
2023-05-03T06:07:03.624Z,44.50
2023-05-03T06:10:06.314Z,45.01
2023-05-03T06:13:08.501Z,44.56
2023-05-03T06:16:11.063Z,44.31
2023-05-03T06:19:12.337Z,45.00
2023-05-03T06:22:13.700Z,44.82
2023-05-03T06:25:17.050Z,42.51
2023-05-03T06:28:20.330Z,43.38
2023-05-03T06:31:21.894Z,41.70
2023-05-03T06:34:23.261Z,40.43
2023-05-03T06:37:24.709Z,40.76
2023-05-03T06:40:26.889Z,40.34
2023-05-03T06:43:28.877Z,39.24
2023-05-03T06:46:30.762Z,38.81
2023-05-03T06:49:32.426Z,38.60
2023-05-03T06:52:33.842Z,37.23
2023-05-03T06:55:35.288Z,36.02
2023-05-03T06:58:37.226Z,37.01
2023-05-03T07:01:38.712Z,35.56
2023-05-03T07:04:40.109Z,36.86
2023-05-03T07:07:41.420Z,36.28
2023-05-03T07:10:42.734Z,34.31
2023-05-03T07:13:44.949Z,36.83
2023-05-03T07:16:46.487Z,33.16
2023-05-03T07:19:48.381Z,31.85
2023-05-03T07:22:49.843Z,33.00
2023-05-03T07:25:53.256Z,33.32
2023-05-03T07:28:55.331Z,32.57
2023-05-03T07:31:56.666Z,31.93
2023-05-03T07:34:58.078Z,32.13
2023-05-03T07:37:59.373Z,31.93
2023-05-03T07:41:00.868Z,31.92
2023-05-03T07:44:03.103Z,31.73
2023-05-03T07:47:04.588Z,30.54
2023-05-03T07:50:07.070Z,30.63
2023-05-03T07:53:08.543Z,32.05
2023-05-03T07:56:10.401Z,32.07
2023-05-03T07:59:12.340Z,33.61
2023-05-03T08:02:13.884Z,31.17
2023-05-03T08:05:15.818Z,31.52
2023-05-03T08:08:18.066Z,30.95
2023-05-03T08:11:19.350Z,29.64
2023-05-03T08:14:21.481Z,29.11
2023-05-03T08:17:23.234Z,30.11
2023-05-03T08:20:26.511Z,29.54
2023-05-03T08:23:28.049Z,27.81
2023-05-03T08:26:30.449Z,27.71
2023-05-03T08:29:32.484Z,27.18
2023-05-03T08:32:33.908Z,27.21
2023-05-03T08:35:35.229Z,26.33
2023-05-03T08:38:40.516Z,26.64
2023-05-03T08:41:41.962Z,28.03
2023-05-03T08:44:47.790Z,26.18
2023-05-03T08:47:56.931Z,26.59
2023-05-03T08:51:04.060Z,26.87
2023-05-03T08:54:05.845Z,26.88
2023-05-03T08:57:10.908Z,26.88
2023-05-03T09:00:14.995Z,26.74
2023-05-03T09:03:16.467Z,26.44
2023-05-03T09:06:22.461Z,24.47
2023-05-03T09:09:31.224Z,25.99
2023-05-03T09:12:34.773Z,25.84
2023-05-03T09:15:37.078Z,25.05
2023-05-03T09:18:42.636Z,24.78
2023-05-03T09:21:46.255Z,25.29
2023-05-03T09:24:53.968Z,25.50
2023-05-03T09:28:01.283Z,24.87
2023-05-03T09:31:07.312Z,24.53
2023-05-03T09:34:21.728Z,24.61
2023-05-03T09:37:35.878Z,25.45
2023-05-03T09:40:46.177Z,25.06
2023-05-03T09:43:51.528Z,25.14
2023-05-03T09:47:04.591Z,25.20
2023-05-03T09:50:07.291Z,24.72
2023-05-03T09:53:09.135Z,24.94
2023-05-03T09:56:12.296Z,25.62
2023-05-03T09:59:13.788Z,24.83
2023-05-03T10:02:17.390Z,24.19
2023-05-03T10:05:21.265Z,24.20
2023-05-03T10:08:27.650Z,23.77
2023-05-03T10:11:28.985Z,24.32
2023-05-03T10:14:31.247Z,23.93
2023-05-03T10:20:50.340Z,24.53
2023-05-03T10:24:11.942Z,24.02
2023-05-03T10:27:13.323Z,24.02
2023-05-03T10:30:28.034Z,23.86
2023-05-03T10:33:31.613Z,23.99
2023-05-03T10:36:45.926Z,23.92
2023-05-03T10:39:52.118Z,22.86
2023-05-03T10:42:55.582Z,22.48
2023-05-03T10:45:57.513Z,23.37
2023-05-03T10:49:20.504Z,24.16
2023-05-03T10:52:47.209Z,26.83
2023-05-03T10:56:02.632Z,24.61
2023-05-03T10:59:04.065Z,23.90
2023-05-03T11:02:06.040Z,24.36
2023-05-03T11:05:12.178Z,23.68
2023-05-03T11:08:16.985Z,23.21
2023-05-03T11:11:18.262Z,22.78
2023-05-03T11:14:19.678Z,23.38
2023-05-03T11:17:21.682Z,23.87
2023-05-03T11:20:23.940Z,24.32
2023-05-03T11:23:27.933Z,24.36
2023-05-03T11:26:35.267Z,24.18
2023-05-03T11:29:38.362Z,25.18
2023-05-03T11:32:40.267Z,25.34
2023-05-03T11:35:43.344Z,25.69
2023-05-03T11:38:44.999Z,23.85
2023-05-03T11:42:02.085Z,25.63
2023-05-03T11:45:04.462Z,25.00
2023-05-03T11:48:07.190Z,24.73
2023-05-03T11:51:10.658Z,24.78
2023-05-03T11:54:24.240Z,24.41
2023-05-03T11:57:27.266Z,25.55
2023-05-03T12:00:30.043Z,23.21
2023-05-03T12:03:32.962Z,24.50
2023-05-03T12:06:37.447Z,24.63
2023-05-03T12:09:41.053Z,25.04
2023-05-03T12:12:53.398Z,24.73
2023-05-03T12:16:10.048Z,25.72
2023-05-03T12:19:23.802Z,26.21
2023-05-03T12:25:34.356Z,26.14
2023-05-03T12:28:36.514Z,26.51
2023-05-03T12:31:39.519Z,26.07
2023-05-03T12:34:41.685Z,27.03
2023-05-03T12:37:44.376Z,26.66
2023-05-03T12:40:46.595Z,26.20
2023-05-03T12:43:47.978Z,26.08
2023-05-03T12:46:52.559Z,26.21
2023-05-03T12:49:54.625Z,26.18
2023-05-03T12:53:02.332Z,26.64
2023-05-03T12:56:06.772Z,27.52
2023-05-03T12:59:39.258Z,28.11
2023-05-03T13:05:48.985Z,28.21
2023-05-03T13:08:51.574Z,28.48
2023-05-03T13:11:54.198Z,28.85
2023-05-03T13:14:55.545Z,27.74
2023-05-03T13:21:20.225Z,27.46
2023-05-03T13:24:22.220Z,28.28
2023-05-03T13:27:23.679Z,28.01
2023-05-03T13:30:25.543Z,26.57
2023-05-03T13:33:27.909Z,26.40
2023-05-03T13:36:29.324Z,26.83
2023-05-03T13:39:31.567Z,26.26
2023-05-03T13:42:33.125Z,28.20
2023-05-03T13:45:34.498Z,28.54
2023-05-03T13:48:36.070Z,28.22
2023-05-03T13:51:37.834Z,27.57
2023-05-03T13:54:41.553Z,27.58
2023-05-03T13:57:43.078Z,28.13
2023-05-03T14:00:44.643Z,27.78
2023-05-03T14:03:46.196Z,28.27
2023-05-03T14:06:47.647Z,27.77
2023-05-03T14:09:49.644Z,27.90
2023-05-03T14:12:51.613Z,27.35
2023-05-03T14:15:52.999Z,28.59
2023-05-03T14:18:55.325Z,27.69
2023-05-03T14:21:58.467Z,28.78
2023-05-03T14:25:00.624Z,29.76
2023-05-03T14:28:01.913Z,30.06
2023-05-03T14:31:03.588Z,29.40
2023-05-03T14:34:04.895Z,29.75
2023-05-03T14:37:06.394Z,29.39
2023-05-03T14:40:09.701Z,30.63
2023-05-03T14:43:11.207Z,30.10
2023-05-03T14:46:12.694Z,30.10
2023-05-03T14:49:14.505Z,29.97
2023-05-03T14:52:16.205Z,29.43
2023-05-03T14:55:18.274Z,30.50
2023-05-03T14:58:19.719Z,30.27
2023-05-03T15:01:21.739Z,29.43
2023-05-03T15:04:23.348Z,29.23
2023-05-03T15:07:24.663Z,29.80
2023-05-03T15:10:26.626Z,29.44
2023-05-03T15:13:28.172Z,29.15
2023-05-03T15:16:29.525Z,29.73
2023-05-03T15:19:31.727Z,29.87
2023-05-03T15:22:35.526Z,30.67
2023-05-03T15:25:38.803Z,30.46
2023-05-03T15:28:40.103Z,30.30
2023-05-03T15:31:42.229Z,30.37
2023-05-03T15:34:43.622Z,30.13
2023-05-03T15:37:44.888Z,30.20
2023-05-03T15:40:47.005Z,29.67
2023-05-03T15:43:48.581Z,30.02
2023-05-03T15:46:50.074Z,29.50
2023-05-03T15:49:51.448Z,30.28
2023-05-03T15:52:52.984Z,30.30
2023-05-03T15:55:57.406Z,31.17
2023-05-03T15:58:58.874Z,31.34
2023-05-03T16:02:00.435Z,31.36
2023-05-03T16:05:02.006Z,31.00
2023-05-03T16:08:03.958Z,30.81
2023-05-03T16:11:06.342Z,31.17
2023-05-03T16:14:08.868Z,31.13
2023-05-03T16:17:10.484Z,31.92
2023-05-03T16:20:12.249Z,31.87
2023-05-03T16:23:13.649Z,32.66
2023-05-03T16:26:17.134Z,32.35
2023-05-03T16:29:18.557Z,32.20
2023-05-03T16:32:19.973Z,32.50
2023-05-03T16:35:21.420Z,33.08
2023-05-03T16:38:23.282Z,32.38
2023-05-03T16:41:25.372Z,33.38
2023-05-03T16:44:26.875Z,32.79
2023-05-03T16:47:28.366Z,33.83
2023-05-03T16:50:29.758Z,33.75
2023-05-03T16:53:31.066Z,33.75
2023-05-03T16:56:33.154Z,34.36
2023-05-03T16:59:34.457Z,34.40
2023-05-03T17:02:36.314Z,35.56
2023-05-03T17:05:37.672Z,34.16
2023-05-03T17:08:39.513Z,34.96
2023-05-03T17:11:41.406Z,36.01
2023-05-03T17:14:42.811Z,36.00
2023-05-03T17:17:44.283Z,36.73
2023-05-03T17:20:45.724Z,35.97
2023-05-03T17:23:47.139Z,36.81
2023-05-03T17:26:49.165Z,36.65
2023-05-03T17:29:50.767Z,37.26
2023-05-03T17:32:52.063Z,37.25
2023-05-03T17:35:54.891Z,37.43
2023-05-03T17:38:56.316Z,38.23
2023-05-03T17:41:58.414Z,37.84
2023-05-03T17:45:00.854Z,38.71
2023-05-03T17:48:03.468Z,38.83
2023-05-03T17:51:04.952Z,39.04
2023-05-03T17:54:06.394Z,39.31
2023-05-03T17:57:08.987Z,39.59
2023-05-03T18:00:14.738Z,39.95
2023-05-03T18:03:16.531Z,40.06
2023-05-03T18:06:18.250Z,40.49
2023-05-03T18:09:20.004Z,40.65
2023-05-03T18:12:22.113Z,40.80
2023-05-03T18:15:23.444Z,41.54
2023-05-03T18:18:24.887Z,42.02
2023-05-03T18:21:27.262Z,42.29
2023-05-03T18:24:28.542Z,42.77
2023-05-03T18:27:33.572Z,42.90
2023-05-03T18:30:34.834Z,43.00
2023-05-03T18:33:36.269Z,43.59
2023-05-03T18:36:38.109Z,43.70
2023-05-03T18:39:39.506Z,43.99
2023-05-03T18:42:41.609Z,44.88
2023-05-03T18:45:43.165Z,45.55
2023-05-03T18:48:44.679Z,45.78
2023-05-03T18:51:46.566Z,46.23
2023-05-03T18:54:48.989Z,46.71
2023-05-03T18:57:50.972Z,46.99
2023-05-03T19:00:52.360Z,46.63
2023-05-03T19:03:54.222Z,47.67
2023-05-03T19:06:55.625Z,47.94
2023-05-03T19:09:57.559Z,47.95
2023-05-03T19:12:59.517Z,48.84
2023-05-03T19:16:00.972Z,48.49
2023-05-03T19:19:02.318Z,48.96
2023-05-03T19:22:03.752Z,49.51
2023-05-03T19:25:06.566Z,49.81
2023-05-03T19:28:09.787Z,50.38
2023-05-03T19:31:11.281Z,50.55
2023-05-03T19:34:12.630Z,50.96
2023-05-03T19:37:14.075Z,51.68
2023-05-03T19:40:15.507Z,52.07
2023-05-03T19:43:17.455Z,52.30
2023-05-03T19:46:19.562Z,51.82
2023-05-03T19:49:28.922Z,52.50
2023-05-03T19:52:30.860Z,53.28
2023-05-03T19:55:32.292Z,52.72
2023-05-03T19:58:34.208Z,53.21
2023-05-03T20:01:35.668Z,53.99
2023-05-03T20:04:36.974Z,54.31
2023-05-03T20:07:38.563Z,54.62
2023-05-03T20:10:40.156Z,54.83
2023-05-03T20:13:42.465Z,55.10
2023-05-03T20:16:43.835Z,55.08
2023-05-03T20:19:48.991Z,55.32
2023-05-03T20:22:50.550Z,56.20
2023-05-03T20:25:52.178Z,56.38
2023-05-03T20:28:54.058Z,56.73
2023-05-03T20:31:55.509Z,56.49
2023-05-03T20:34:56.843Z,56.86
2023-05-03T20:37:58.345Z,57.39
2023-05-03T20:40:59.862Z,57.29
2023-05-03T20:44:01.838Z,57.83
2023-05-03T20:47:04.193Z,58.04
2023-05-03T20:50:08.033Z,57.50
2023-05-03T20:53:09.671Z,57.97
2023-05-03T20:56:11.682Z,57.82
2023-05-03T20:59:13.785Z,57.83
2023-05-03T21:02:15.268Z,58.59
2023-05-03T21:05:16.776Z,59.17
2023-05-03T21:08:18.405Z,59.33
2023-05-03T21:11:19.896Z,59.84
2023-05-03T21:14:22.133Z,60.51
2023-05-03T21:17:23.593Z,60.56
2023-05-03T21:20:27.591Z,60.64
2023-05-03T21:23:28.967Z,60.14
2023-05-03T21:26:30.681Z,60.36
2023-05-03T21:29:32.656Z,60.64
2023-05-03T21:32:34.305Z,60.52
2023-05-03T21:35:35.962Z,60.53
2023-05-03T21:38:37.272Z,60.57
2023-05-03T21:41:39.072Z,61.47
2023-05-03T21:44:41.604Z,61.14
2023-05-03T21:47:43.135Z,61.44
2023-05-03T21:50:45.216Z,61.46
2023-05-03T21:53:46.920Z,61.87
2023-05-03T21:56:48.346Z,62.28
2023-05-03T21:59:50.453Z,61.66
2023-05-03T22:02:52.081Z,61.86
2023-05-03T22:05:53.582Z,61.43
2023-05-03T22:08:55.222Z,61.87
2023-05-03T22:11:58.086Z,61.23
2023-05-03T22:15:00.495Z,61.24
2023-05-03T22:18:02.095Z,61.75
2023-05-03T22:21:04.091Z,62.10
2023-05-03T22:24:06.845Z,61.95
2023-05-03T22:27:08.277Z,61.97
2023-05-03T22:30:11.215Z,61.70
2023-05-03T22:33:12.984Z,61.71
2023-05-03T22:36:14.699Z,60.36
2023-05-03T22:39:16.704Z,58.97
2023-05-03T22:42:17.999Z,59.48
2023-05-03T22:45:20.081Z,59.75
2023-05-03T22:48:21.772Z,59.36
2023-05-03T22:51:24.232Z,58.98
2023-05-03T22:54:26.223Z,59.76
2023-05-03T22:57:27.639Z,58.93
2023-05-03T23:00:29.666Z,59.50
2023-05-03T23:03:31.197Z,59.64
2023-05-03T23:06:32.644Z,60.10
2023-05-03T23:09:33.921Z,58.88
2023-05-03T23:12:35.699Z,60.26
2023-05-03T23:15:38.264Z,60.51
2023-05-03T23:18:39.712Z,60.58
2023-05-03T23:21:40.968Z,59.75
2023-05-03T23:24:42.386Z,60.90
2023-05-03T23:27:43.681Z,60.07
2023-05-03T23:30:46.181Z,60.31
2023-05-03T23:33:48.206Z,60.68
2023-05-03T23:36:49.454Z,59.98
2023-05-03T23:39:51.353Z,60.00
2023-05-03T23:42:52.718Z,60.45
2023-05-03T23:45:54.862Z,60.36
2023-05-03T23:48:56.184Z,60.71
2023-05-03T23:51:57.455Z,61.38
2023-05-03T23:54:58.765Z,61.65
2023-05-03T23:58:00.223Z,61.49
